Time;durP1;ratioP1;P1;durP2;ratioP2;P2;SDS_P1;SDS_P2;PMS_P1;PMS_P2;Temp;Humidity;BMP_temperature;BMP_pressure;BME280_temperature;BME280_humidity;BME280_pressure;Samples;Min_cycle;Max_cycle;Signal;HPM_P1;HPM_P2
2022/03/27 00:01:40;;;;;;;42.17;11.20;;;4.30;99.90;;;;;;4993415;28;20212;-50
2022/03/27 00:04:06;;;;;;;25.37;9.70;;;4.30;99.90;;;;;;4993936;28;20242;-50
2022/03/27 00:06:31;;;;;;;43.47;11.33;;;4.30;99.90;;;;;;4995225;28;20815;-50
2022/03/27 00:08:57;;;;;;;60.60;11.33;;;4.30;99.90;;;;;;5006877;28;20661;-50
2022/03/27 00:11:26;;;;;;;36.43;10.43;;;4.30;99.90;;;;;;4994509;28;20176;-50
2022/03/27 00:13:59;;;;;;;25.60;10.83;;;4.30;99.90;;;;;;4993734;28;20188;-50
2022/03/27 00:16:25;;;;;;;29.03;10.40;;;4.30;99.90;;;;;;4996289;28;20439;-51
2022/03/27 00:18:51;;;;;;;32.97;10.87;;;4.20;99.90;;;;;;4987815;28;20969;-50
2022/03/27 00:21:17;;;;;;;30.83;11.50;;;4.20;99.90;;;;;;4991799;28;20463;-50
2022/03/27 00:23:43;;;;;;;32.70;10.23;;;4.20;99.90;;;;;;4993355;28;20439;-50
2022/03/27 00:26:11;;;;;;;31.13;10.50;;;4.20;99.90;;;;;;5005285;28;20445;-51
2022/03/27 00:28:37;;;;;;;29.93;10.83;;;4.20;99.90;;;;;;4993712;28;20222;-50
2022/03/27 00:31:05;;;;;;;33.07;11.50;;;4.10;99.90;;;;;;4993690;28;20853;-50
2022/03/27 00:33:32;;;;;;;30.43;11.13;;;4.10;99.90;;;;;;4994376;28;20541;-50
2022/03/27 00:35:59;;;;;;;28.87;10.47;;;4.10;99.90;;;;;;4995004;28;20543;-50
2022/03/27 00:38:26;;;;;;;31.47;10.93;;;4.10;99.90;;;;;;4993054;28;20446;-51
2022/03/27 00:40:52;;;;;;;28.23;11.50;;;4.10;99.90;;;;;;4982893;28;20436;-50
2022/03/27 00:43:23;;;;;;;51.87;12.63;;;4.10;99.90;;;;;;4983111;28;20438;-50
2022/03/27 00:45:48;;;;;;;40.80;12.23;;;4.10;99.90;;;;;;4989588;28;20422;-50
2022/03/27 00:48:18;;;;;;;32.67;10.47;;;4.00;99.90;;;;;;4994103;28;20444;-50
2022/03/27 00:50:44;;;;;;;44.67;12.80;;;4.00;99.90;;;;;;4991894;28;20203;-50
2022/03/27 00:53:09;;;;;;;40.57;13.60;;;4.10;99.90;;;;;;4992743;28;20898;-50
2022/03/27 00:55:35;;;;;;;41.87;13.10;;;4.00;99.90;;;;;;4993046;28;20431;-50
2022/03/27 00:58:02;;;;;;;38.63;13.70;;;4.00;99.90;;;;;;4992691;28;20244;-50
2022/03/27 01:00:45;;;;;;;34.60;13.17;;;4.00;99.90;;;;;;4993192;28;20180;-50
2022/03/27 01:03:13;;;;;;;28.17;12.50;;;4.00;99.90;;;;;;4997494;28;20434;-50
2022/03/27 01:05:40;;;;;;;32.43;13.37;;;4.00;99.90;;;;;;4998142;28;20490;-50
2022/03/27 01:08:08;;;;;;;41.90;14.80;;;4.00;99.90;;;;;;4996371;28;20530;-51
2022/03/27 01:10:34;;;;;;;30.93;13.60;;;4.00;99.90;;;;;;4992032;28;20984;-50
2022/03/27 01:13:07;;;;;;;34.73;14.20;;;4.00;99.90;;;;;;4989507;28;20443;-50
2022/03/27 01:15:57;;;;;;;27.60;14.17;;;4.10;99.90;;;;;;4993125;28;20431;-50
2022/03/27 01:18:23;;;;;;;34.50;14.40;;;4.10;99.90;;;;;;5004548;28;20450;-50
2022/03/27 01:20:49;;;;;;;43.47;16.20;;;4.10;99.90;;;;;;4992314;28;20445;-50
2022/03/27 01:23:15;;;;;;;44.03;14.30;;;4.10;99.90;;;;;;4992458;28;20420;-50
2022/03/27 01:25:45;;;;;;;38.23;16.70;;;4.10;99.90;;;;;;4992329;28;20181;-50
2022/03/27 01:28:14;;;;;;;35.50;14.57;;;4.00;99.90;;;;;;4975041;28;20428;-51
2022/03/27 01:30:41;;;;;;;37.37;15.77;;;4.00;99.90;;;;;;4986611;28;20436;-50
2022/03/27 01:33:09;;;;;;;36.87;15.40;;;4.10;99.90;;;;;;4994934;28;20925;-50
2022/03/27 01:35:36;;;;;;;42.93;16.87;;;4.00;99.90;;;;;;5000391;28;20429;-50
2022/03/27 01:38:01;;;;;;;32.60;15.50;;;4.00;99.90;;;;;;4991586;28;20427;-50
2022/03/27 01:40:27;;;;;;;40.77;15.93;;;4.00;99.90;;;;;;4980098;28;20446;-50
2022/03/27 01:42:55;;;;;;;42.20;15.40;;;3.90;99.90;;;;;;4994052;28;20216;-50
2022/03/27 01:45:24;;;;;;;41.77;14.60;;;3.90;99.90;;;;;;4985428;28;20268;-50
2022/03/27 01:47:51;;;;;;;47.73;16.20;;;3.90;99.90;;;;;;5003588;28;20454;-50
2022/03/27 01:50:17;;;;;;;35.23;14.43;;;3.80;99.90;;;;;;4997940;28;21134;-50
2022/03/27 01:52:42;;;;;;;27.53;14.63;;;3.80;99.90;;;;;;4995548;28;20435;-50
2022/03/27 01:55:16;;;;;;;42.47;15.80;;;3.90;99.90;;;;;;4999830;28;20239;-50
2022/03/27 01:57:42;;;;;;;29.77;14.10;;;3.80;99.90;;;;;;4991388;28;20235;-50
2022/03/27 02:00:09;;;;;;;39.37;15.87;;;3.80;99.90;;;;;;4999725;28;20805;-50
2022/03/27 02:02:36;;;;;;;31.23;15.10;;;3.70;99.90;;;;;;4991620;28;20470;-50
2022/03/27 02:05:02;;;;;;;30.60;14.40;;;3.70;99.90;;;;;;4994070;28;20431;-50
2022/03/27 02:07:36;;;;;;;44.63;15.90;;;3.60;99.90;;;;;;4996356;28;20513;-51
2022/03/27 02:10:02;;;;;;;37.30;16.57;;;3.60;99.90;;;;;;5000075;28;20897;-50
2022/03/27 02:12:27;;;;;;;44.80;16.60;;;3.60;99.90;;;;;;5000936;28;20435;-50
2022/03/27 02:14:53;;;;;;;46.00;16.77;;;3.60;99.90;;;;;;4991137;28;20435;-51
2022/03/27 02:17:18;;;;;;;38.63;15.10;;;3.50;99.90;;;;;;4996678;28;20982;-50
2022/03/27 02:19:44;;;;;;;39.60;17.17;;;3.50;99.90;;;;;;5001955;28;20543;-50
2022/03/27 02:22:09;;;;;;;56.70;18.53;;;3.50;99.90;;;;;;4995446;28;20220;-51
2022/03/27 02:24:35;;;;;;;58.87;19.23;;;3.60;99.90;;;;;;5005583;28;20191;-50
2022/03/27 02:27:00;;;;;;;54.00;18.07;;;3.60;99.90;;;;;;5008915;28;20191;-50
2022/03/27 02:29:26;;;;;;;53.73;18.73;;;3.60;99.90;;;;;;5001099;28;20243;-50
2022/03/27 02:31:51;;;;;;;50.43;18.03;;;3.60;99.90;;;;;;4997444;28;20274;-50
2022/03/27 02:34:17;;;;;;;60.83;19.50;;;3.60;99.90;;;;;;5000940;28;20195;-50
2022/03/27 02:36:43;;;;;;;47.93;17.67;;;3.60;99.90;;;;;;4993643;28;20192;-51
2022/03/27 02:39:09;;;;;;;40.60;18.30;;;3.60;99.90;;;;;;4991128;28;20192;-50
2022/03/27 02:41:34;;;;;;;50.20;16.70;;;3.60;99.90;;;;;;5010226;28;20509;-50
2022/03/27 02:44:00;;;;;;;68.10;18.80;;;3.60;99.90;;;;;;4995770;28;20212;-50
2022/03/27 02:46:25;;;;;;;53.07;18.80;;;3.50;99.90;;;;;;4992357;28;20169;-50
2022/03/27 02:48:51;;;;;;;46.77;19.83;;;3.50;99.90;;;;;;4997554;28;20211;-50
2022/03/27 02:51:16;;;;;;;57.37;18.37;;;3.50;99.90;;;;;;4996116;28;20192;-50
2022/03/27 02:53:42;;;;;;;43.30;20.53;;;3.50;99.90;;;;;;4998375;28;20227;-50
2022/03/27 02:56:08;;;;;;;52.80;20.10;;;3.50;99.90;;;;;;5002446;28;20656;-50
2022/03/27 02:58:35;;;;;;;45.87;20.23;;;3.50;99.90;;;;;;4976371;28;20247;-50
2022/03/27 03:01:01;;;;;;;42.60;17.80;;;3.50;99.90;;;;;;4995899;28;20912;-50
2022/03/27 03:03:27;;;;;;;50.40;18.77;;;3.50;99.90;;;;;;4999792;28;20443;-50
2022/03/27 03:05:54;;;;;;;47.03;18.07;;;3.60;99.90;;;;;;4990814;28;21193;-50
2022/03/27 03:08:20;;;;;;;41.63;17.90;;;3.50;99.90;;;;;;5001226;28;20194;-50
2022/03/27 03:10:46;;;;;;;49.17;19.83;;;3.50;99.90;;;;;;5003578;28;20426;-50
2022/03/27 03:13:12;;;;;;;39.37;17.27;;;3.50;99.90;;;;;;4995676;28;20212;-50
2022/03/27 03:15:39;;;;;;;52.20;18.93;;;3.50;99.90;;;;;;5004181;28;20650;-50
2022/03/27 03:18:05;;;;;;;42.17;18.20;;;3.50;99.90;;;;;;5003121;28;20896;-50
2022/03/27 03:20:32;;;;;;;43.07;17.20;;;3.40;99.90;;;;;;4996191;28;20837;-51
2022/03/27 03:22:57;;;;;;;37.07;16.30;;;3.40;99.90;;;;;;4994212;28;20478;-50
2022/03/27 03:25:23;;;;;;;41.27;17.80;;;3.40;99.90;;;;;;4985382;28;20506;-50
2022/03/27 03:27:49;;;;;;;52.80;18.63;;;3.30;99.90;;;;;;4997146;28;20231;-50
2022/03/27 03:30:16;;;;;;;45.27;18.87;;;3.30;99.90;;;;;;4996005;28;20180;-50
2022/03/27 03:32:42;;;;;;;51.10;19.70;;;3.40;99.90;;;;;;4994718;28;20431;-51
2022/03/27 03:35:09;;;;;;;36.90;17.67;;;3.40;99.90;;;;;;4994623;28;20522;-51
2022/03/27 03:37:35;;;;;;;39.10;18.97;;;3.40;99.90;;;;;;4994445;28;20438;-50
2022/03/27 03:40:03;;;;;;;50.57;18.73;;;3.50;99.90;;;;;;4995928;28;20765;-50
2022/03/27 03:42:28;;;;;;;64.33;18.77;;;3.50;99.90;;;;;;4994541;28;20480;-50
2022/03/27 03:44:54;;;;;;;61.27;18.93;;;3.50;99.90;;;;;;4994269;28;20424;-52
2022/03/27 03:47:20;;;;;;;47.00;19.00;;;3.50;99.90;;;;;;4994187;28;20435;-50
2022/03/27 03:49:46;;;;;;;53.03;18.40;;;3.50;99.90;;;;;;4994319;28;20172;-50
2022/03/27 03:52:11;;;;;;;85.73;18.60;;;3.50;99.90;;;;;;4994087;28;20185;-50
2022/03/27 03:54:37;;;;;;;36.70;17.10;;;3.40;99.90;;;;;;4986590;28;20665;-50
2022/03/27 03:57:05;;;;;;;36.30;16.87;;;3.40;99.90;;;;;;4983246;28;20279;-50
2022/03/27 03:59:33;;;;;;;43.20;17.07;;;3.40;99.90;;;;;;4999743;28;20242;-50
2022/03/27 04:01:59;;;;;;;69.67;19.87;;;3.30;99.90;;;;;;4993997;28;20463;-50
2022/03/27 04:04:25;;;;;;;37.13;17.43;;;3.30;99.90;;;;;;5002223;28;20435;-51
2022/03/27 04:06:51;;;;;;;43.17;16.60;;;3.30;99.90;;;;;;4996821;28;20427;-50
2022/03/27 04:09:17;;;;;;;128.53;20.00;;;3.40;99.90;;;;;;4994096;28;20435;-50
2022/03/27 04:11:43;;;;;;;107.10;19.50;;;3.40;99.90;;;;;;4993994;28;20191;-50
2022/03/27 04:14:09;;;;;;;89.67;19.47;;;3.40;99.90;;;;;;4993887;28;20230;-51
2022/03/27 04:16:34;;;;;;;50.83;17.90;;;3.40;99.90;;;;;;4997408;28;20439;-50
2022/03/27 04:19:00;;;;;;;84.03;20.47;;;3.40;99.90;;;;;;4991561;28;20499;-50
2022/03/27 04:21:26;;;;;;;99.17;19.20;;;3.40;99.90;;;;;;4984066;28;20208;-50
2022/03/27 04:23:52;;;;;;;53.70;18.63;;;3.50;99.90;;;;;;4991689;28;20434;-51
2022/03/27 04:26:17;;;;;;;52.57;18.40;;;3.50;99.90;;;;;;4991329;28;20193;-51
2022/03/27 04:28:43;;;;;;;63.70;19.23;;;3.50;99.90;;;;;;4993559;28;20661;-50
2022/03/27 04:31:09;;;;;;;70.03;18.80;;;3.40;99.90;;;;;;4974184;28;20272;-50
2022/03/27 04:33:34;;;;;;;68.03;19.57;;;3.40;99.90;;;;;;4992411;28;20173;-50
2022/03/27 04:36:02;;;;;;;73.80;18.77;;;3.40;99.90;;;;;;4989675;28;20188;-50
2022/03/27 04:38:27;;;;;;;64.57;19.83;;;3.40;99.90;;;;;;4990410;28;20184;-50
2022/03/27 04:40:53;;;;;;;114.57;21.00;;;3.40;99.90;;;;;;4991020;28;20494;-50
2022/03/27 04:43:18;;;;;;;68.97;19.03;;;3.40;99.90;;;;;;4985791;28;20737;-50
2022/03/27 04:45:44;;;;;;;51.80;17.17;;;3.40;99.90;;;;;;4989525;28;20188;-50
2022/03/27 04:48:09;;;;;;;82.40;18.47;;;3.40;99.90;;;;;;4992868;28;20248;-51
2022/03/27 04:50:35;;;;;;;59.57;17.30;;;3.40;99.90;;;;;;4991480;28;20251;-50
2022/03/27 04:53:00;;;;;;;43.43;13.33;;;3.40;99.90;;;;;;4987163;28;20271;-55
2022/03/27 04:55:26;;;;;;;62.93;15.43;;;3.40;99.90;;;;;;4997668;28;20199;-50
2022/03/27 04:57:52;;;;;;;47.23;15.50;;;3.30;99.90;;;;;;4991879;28;20236;-50
2022/03/27 05:00:17;;;;;;;27.30;13.90;;;3.30;99.90;;;;;;4992693;28;20193;-50
2022/03/27 05:02:44;;;;;;;28.17;13.80;;;3.20;99.90;;;;;;4985434;28;20246;-50
2022/03/27 05:05:11;;;;;;;39.17;14.50;;;3.20;99.90;;;;;;4986758;28;20184;-52
2022/03/27 05:07:38;;;;;;;24.90;13.50;;;3.20;99.90;;;;;;4991690;28;20431;-51
2022/03/27 05:10:04;;;;;;;25.87;13.17;;;3.20;99.90;;;;;;4990846;28;20446;-51
2022/03/27 05:12:30;;;;;;;23.97;12.50;;;3.20;99.90;;;;;;4991109;28;20443;-51
2022/03/27 05:14:56;;;;;;;26.60;12.10;;;3.20;99.90;;;;;;4988099;28;20451;-51
2022/03/27 05:17:22;;;;;;;60.63;13.10;;;3.10;99.90;;;;;;4990690;28;20254;-51
2022/03/27 05:19:47;;;;;;;83.20;14.77;;;3.00;99.90;;;;;;4996627;28;20447;-51
2022/03/27 05:22:14;;;;;;;50.57;13.10;;;3.00;99.90;;;;;;4979283;28;20609;-51
2022/03/27 05:24:40;;;;;;;63.80;13.80;;;3.00;99.90;;;;;;4992190;28;20196;-51
2022/03/27 05:27:06;;;;;;;53.47;14.10;;;3.00;99.90;;;;;;4991429;28;20427;-50
2022/03/27 05:29:31;;;;;;;26.20;12.50;;;3.00;99.90;;;;;;4990634;28;20239;-50
2022/03/27 05:31:58;;;;;;;77.27;15.73;;;3.00;99.90;;;;;;4988060;28;20205;-50
2022/03/27 05:34:24;;;;;;;45.83;13.37;;;3.00;99.90;;;;;;4993488;28;20579;-50
2022/03/27 05:36:50;;;;;;;83.23;15.93;;;3.00;99.90;;;;;;4992699;28;20428;-50
2022/03/27 05:39:17;;;;;;;25.33;13.00;;;3.00;99.90;;;;;;4992078;28;20432;-50
2022/03/27 05:41:43;;;;;;;22.27;12.37;;;3.00;99.90;;;;;;4995525;28;20333;-50
2022/03/27 05:44:09;;;;;;;27.40;12.83;;;3.10;99.90;;;;;;4991616;28;20925;-50
2022/03/27 05:46:35;;;;;;;27.90;13.40;;;3.10;99.90;;;;;;4991906;28;20478;-51
2022/03/27 05:49:00;;;;;;;70.93;14.80;;;3.10;99.90;;;;;;4994705;28;20231;-51
2022/03/27 05:51:26;;;;;;;36.50;15.47;;;3.10;99.90;;;;;;4986744;28;20451;-51
2022/03/27 05:53:51;;;;;;;67.17;15.87;;;3.20;99.90;;;;;;4991223;28;20551;-50
2022/03/27 05:56:17;;;;;;;35.37;14.10;;;3.20;99.90;;;;;;4973042;28;20192;-50
2022/03/27 05:58:43;;;;;;;46.40;15.37;;;3.20;99.90;;;;;;4991660;28;20660;-51
2022/03/27 06:01:09;;;;;;;42.03;13.73;;;3.20;99.90;;;;;;4992659;28;20196;-50
2022/03/27 06:03:34;;;;;;;70.13;14.50;;;3.20;99.90;;;;;;4992468;28;20887;-50
2022/03/27 06:06:00;;;;;;;43.57;13.67;;;3.20;99.90;;;;;;4992840;28;20566;-51
2022/03/27 06:08:25;;;;;;;84.77;16.50;;;3.20;99.90;;;;;;4987987;28;20642;-50
2022/03/27 06:10:51;;;;;;;143.00;19.10;;;3.30;99.90;;;;;;4992995;28;20188;-50
2022/03/27 06:13:17;;;;;;;49.07;15.23;;;3.30;99.90;;;;;;4992846;28;20589;-50
2022/03/27 06:15:43;;;;;;;68.83;14.80;;;3.30;99.90;;;;;;4990523;28;20180;-50
2022/03/27 06:18:10;;;;;;;129.70;15.73;;;3.40;99.90;;;;;;4991222;28;20490;-51
2022/03/27 06:20:37;;;;;;;66.00;14.20;;;3.40;99.90;;;;;;4992015;28;20179;-50
2022/03/27 06:23:03;;;;;;;30.57;12.00;;;3.50;99.90;;;;;;4993607;28;20522;-51
2022/03/27 06:25:29;;;;;;;35.37;14.83;;;3.50;99.90;;;;;;4994552;28;20429;-51
2022/03/27 06:27:56;;;;;;;51.80;16.00;;;3.60;99.90;;;;;;4977833;28;20432;-51
2022/03/27 06:30:29;;;;;;;87.67;15.70;;;3.70;99.90;;;;;;4991176;28;20439;-50
2022/03/27 06:32:55;;;;;;;46.27;16.03;;;3.80;99.90;;;;;;4993551;28;20451;-51
2022/03/27 06:35:22;;;;;;;55.33;16.40;;;3.90;99.90;;;;;;4993807;28;20819;-50
2022/03/27 06:37:49;;;;;;;31.60;15.13;;;4.00;99.90;;;;;;4991885;28;20851;-50
2022/03/27 06:40:15;;;;;;;31.57;14.60;;;4.10;99.90;;;;;;4992998;28;20462;-50
2022/03/27 06:42:43;;;;;;;35.23;13.70;;;4.20;99.90;;;;;;4989600;28;20463;-50
2022/03/27 06:45:10;;;;;;;50.93;15.20;;;4.30;99.90;;;;;;4990145;28;20436;-51
2022/03/27 06:47:36;;;;;;;41.20;13.93;;;4.30;99.90;;;;;;4989077;28;20419;-51
2022/03/27 06:50:04;;;;;;;39.50;13.23;;;4.30;99.90;;;;;;4990181;28;20431;-50
2022/03/27 06:52:31;;;;;;;38.20;16.53;;;4.40;99.90;;;;;;4984346;28;20490;-51
2022/03/27 06:54:57;;;;;;;57.27;19.33;;;4.50;99.90;;;;;;4996832;28;20538;-51
2022/03/27 06:57:23;;;;;;;59.90;21.37;;;4.60;99.90;;;;;;4989816;28;20483;-50
2022/03/27 07:05:17;;;;;;;39.57;18.17;;;4.60;99.90;;;;;;4992666;28;21325;-50
2022/03/27 07:07:43;;;;;;;61.47;17.67;;;4.70;99.90;;;;;;4996313;28;20434;-51
2022/03/27 07:10:10;;;;;;;44.97;16.93;;;4.70;99.90;;;;;;4991266;28;20711;-51
2022/03/27 07:12:36;;;;;;;56.77;18.93;;;4.70;99.90;;;;;;4991655;28;20446;-51
2022/03/27 07:15:01;;;;;;;66.43;21.10;;;4.70;99.90;;;;;;4994023;28;20423;-51
2022/03/27 07:17:27;;;;;;;61.40;20.90;;;4.70;99.90;;;;;;4989993;28;20651;-51
2022/03/27 07:19:52;;;;;;;50.30;19.80;;;4.70;99.90;;;;;;4989980;28;20661;-51
2022/03/27 07:22:18;;;;;;;46.43;18.63;;;4.70;99.90;;;;;;4973335;28;20228;-51
2022/03/27 07:24:45;;;;;;;51.20;19.83;;;4.80;99.90;;;;;;4993589;28;20251;-51
2022/03/27 07:27:11;;;;;;;45.47;18.90;;;4.90;99.90;;;;;;4990222;28;20240;-51
2022/03/27 07:29:38;;;;;;;49.33;18.67;;;5.00;99.90;;;;;;4992264;28;20428;-51
2022/03/27 07:32:04;;;;;;;47.30;16.67;;;5.10;99.90;;;;;;4990746;28;20436;-51
2022/03/27 07:34:30;;;;;;;37.50;17.33;;;5.20;99.90;;;;;;4990294;28;21006;-51
2022/03/27 07:36:55;;;;;;;46.63;16.67;;;5.40;99.90;;;;;;4994421;28;20415;-51
2022/03/27 07:39:21;;;;;;;36.87;15.70;;;5.40;99.90;;;;;;4991431;28;20613;-51
2022/03/27 07:41:47;;;;;;;33.60;16.43;;;5.50;99.90;;;;;;4990099;28;20212;-51
2022/03/27 07:44:13;;;;;;;32.63;16.23;;;5.50;99.90;;;;;;4992235;28;21099;-51
2022/03/27 07:46:39;;;;;;;38.43;17.07;;;5.60;99.90;;;;;;4993955;28;20473;-51
2022/03/27 07:49:05;;;;;;;40.60;18.30;;;5.60;99.90;;;;;;4989493;28;20230;-51
2022/03/27 07:51:31;;;;;;;38.30;17.23;;;5.60;99.90;;;;;;4990898;28;20518;-51
2022/03/27 07:53:56;;;;;;;43.20;18.40;;;5.70;99.90;;;;;;4989131;28;20435;-51
2022/03/27 07:56:22;;;;;;;34.83;17.30;;;5.80;99.90;;;;;;4994819;28;20199;-51
2022/03/27 07:58:48;;;;;;;38.37;18.20;;;5.90;99.90;;;;;;4994882;28;20343;-51
2022/03/27 08:01:15;;;;;;;43.70;20.40;;;6.10;99.90;;;;;;4991345;28;20845;-51
2022/03/27 08:03:41;;;;;;;43.90;17.90;;;6.20;99.90;;;;;;4992352;28;20191;-51
2022/03/27 08:06:07;;;;;;;43.37;19.13;;;6.30;99.90;;;;;;4992593;28;20450;-51
2022/03/27 08:08:33;;;;;;;51.80;18.03;;;6.40;99.90;;;;;;4994769;28;20422;-51
2022/03/27 08:10:58;;;;;;;46.97;16.00;;;6.40;99.90;;;;;;4992085;28;20423;-50
2022/03/27 08:13:24;;;;;;;28.63;13.00;;;6.50;99.90;;;;;;4975074;28;20231;-50
2022/03/27 08:15:50;;;;;;;26.03;11.00;;;6.50;99.90;;;;;;4994892;28;20268;-51
2022/03/27 08:18:15;;;;;;;32.17;10.50;;;6.60;99.90;;;;;;4995131;28;20712;-51
2022/03/27 08:20:41;;;;;;;27.90;10.40;;;6.60;99.90;;;;;;4994207;28;20189;-50
2022/03/27 08:23:07;;;;;;;28.20;9.90;;;6.80;99.90;;;;;;4993050;28;20242;-53
2022/03/27 08:28:20;;;;;;;22.53;11.00;;;7.40;99.90;;;;;;4991390;28;20503;-53
2022/03/27 08:30:46;;;;;;;32.63;9.80;;;8.10;99.90;;;;;;4994917;28;20873;-55
2022/03/27 08:33:13;;;;;;;25.30;9.30;;;8.70;99.90;;;;;;4996231;28;20452;-53
2022/03/27 08:35:42;;;;;;;18.10;8.43;;;8.90;99.90;;;;;;4993276;28;20945;-53
2022/03/27 08:38:09;;;;;;;35.87;9.93;;;9.10;1.00;;;;;;4993084;28;20511;-55
2022/03/27 08:40:38;;;;;;;20.63;8.00;;;9.90;1.00;;;;;;4994458;28;20427;-52
2022/03/27 08:43:08;;;;;;;23.90;9.53;;;10.10;1.00;;;;;;4998324;28;20533;-50
2022/03/27 08:45:33;;;;;;;28.70;9.30;;;10.40;1.00;;;;;;4993341;28;20427;-50
2022/03/27 08:47:59;;;;;;;30.17;10.53;;;10.40;99.90;;;;;;4993268;28;20502;-50
2022/03/27 08:50:34;;;;;;;20.83;10.93;;;10.30;99.90;;;;;;4988847;28;20180;-50
2022/03/27 08:53:03;;;;;;;27.73;11.03;;;10.00;99.90;;;;;;4992556;28;20279;-50
2022/03/27 08:55:54;;;;;;;19.80;9.17;;;9.80;99.90;;;;;;4986682;28;20490;-49
2022/03/27 08:58:25;;;;;;;27.70;11.30;;;9.70;99.90;;;;;;4974684;28;21214;-50
2022/03/27 09:00:51;;;;;;;28.30;11.20;;;10.00;1.00;;;;;;4997152;28;20424;-50
2022/03/27 09:03:20;;;;;;;37.83;11.47;;;10.40;99.90;;;;;;5001378;28;20951;-50
2022/03/27 09:05:46;;;;;;;28.20;10.93;;;10.80;99.90;;;;;;4998552;28;20463;-50
2022/03/27 09:08:12;;;;;;;24.23;9.43;;;11.20;99.90;;;;;;4975942;28;20537;-50
2022/03/27 09:10:40;;;;;;;26.10;10.17;;;11.40;99.90;;;;;;4996978;28;20175;-50
2022/03/27 09:13:13;;;;;;;33.03;9.70;;;11.20;99.90;;;;;;4998244;28;20494;-50
2022/03/27 09:15:39;;;;;;;29.57;9.70;;;11.00;99.90;;;;;;4992972;28;20435;-50
2022/03/27 09:18:08;;;;;;;31.60;8.90;;;11.40;99.90;;;;;;4999775;28;20438;-50
2022/03/27 09:20:53;;;;;;;32.07;9.97;;;11.60;99.90;;;;;;5011137;28;20581;-50
2022/03/27 09:23:30;;;;;;;22.53;9.20;;;11.60;99.90;;;;;;4992781;28;20471;-50
2022/03/27 09:26:13;;;;;;;22.47;9.40;;;11.70;99.90;;;;;;4992323;28;20420;-50
2022/03/27 09:28:41;;;;;;;22.63;8.90;;;11.90;99.90;;;;;;4992419;28;20843;-49
2022/03/27 09:31:21;;;;;;;25.50;8.50;;;11.90;99.90;;;;;;5006567;28;20437;-50
2022/03/27 09:33:49;;;;;;;23.00;9.33;;;11.70;99.90;;;;;;4997923;28;20766;-53
2022/03/27 09:36:17;;;;;;;25.00;9.37;;;11.70;99.90;;;;;;4992903;28;20929;-57
2022/03/27 09:39:07;;;;;;;27.80;9.87;;;11.40;99.90;;;;;;4993822;28;20510;-53
2022/03/27 09:41:38;;;;;;;29.57;10.90;;;11.10;99.90;;;;;;4987147;28;20582;-53
2022/03/27 09:44:10;;;;;;;27.03;11.70;;;11.00;99.90;;;;;;4992024;28;20462;-54
2022/03/27 09:46:51;;;;;;;26.90;10.80;;;11.00;99.90;;;;;;4993542;28;20451;-53
2022/03/27 09:49:19;;;;;;;29.33;12.80;;;10.90;99.90;;;;;;4991876;28;20975;-53
2022/03/27 09:52:05;;;;;;;38.77;14.50;;;10.90;99.90;;;;;;4992144;28;20431;-53
2022/03/27 09:54:50;;;;;;;32.13;15.50;;;10.80;99.90;;;;;;4978672;28;20533;-54
2022/03/27 09:57:26;;;;;;;38.30;18.53;;;10.80;99.90;;;;;;5009407;28;20489;-54
2022/03/27 09:59:53;;;;;;;41.93;20.00;;;10.90;99.90;;;;;;4997511;28;20746;-54
2022/03/27 10:02:20;;;;;;;43.13;19.63;;;10.80;99.90;;;;;;4991184;28;20467;-54
2022/03/27 10:04:56;;;;;;;50.10;21.47;;;11.00;99.90;;;;;;4991227;28;20419;-54
2022/03/27 10:07:24;;;;;;;46.73;21.87;;;10.90;99.90;;;;;;4990957;28;20415;-54
2022/03/27 10:09:51;;;;;;;42.00;21.83;;;11.10;99.90;;;;;;4995668;28;20434;-54
2022/03/27 10:12:17;;;;;;;43.87;18.53;;;11.10;99.90;;;;;;4995263;28;20454;-54
2022/03/27 10:14:44;;;;;;;41.50;19.17;;;11.20;99.90;;;;;;5009431;28;20513;-54
2022/03/27 10:17:11;;;;;;;48.03;18.60;;;11.30;99.90;;;;;;4995393;28;20431;-54
2022/03/27 10:19:50;;;;;;;32.53;15.30;;;11.40;99.90;;;;;;4991822;28;20446;-54
2022/03/27 10:22:20;;;;;;;33.77;15.90;;;11.40;99.90;;;;;;4991601;28;20463;-54
2022/03/27 10:24:48;;;;;;;32.33;14.20;;;11.50;99.90;;;;;;4988050;28;20937;-54
2022/03/27 10:27:17;;;;;;;28.87;12.37;;;11.50;99.90;;;;;;4991432;28;20517;-54
2022/03/27 10:29:43;;;;;;;36.53;12.60;;;11.50;99.90;;;;;;4990797;28;20945;-55
2022/03/27 10:32:10;;;;;;;22.20;12.00;;;11.60;99.90;;;;;;4998065;28;20434;-53
2022/03/27 10:35:03;;;;;;;30.43;12.13;;;11.90;99.90;;;;;;4986763;28;23853;-54
2022/03/27 10:38:08;;;;;;;30.73;13.80;;;12.20;99.90;;;;;;4985328;28;20432;-54
2022/03/27 10:40:58;;;;;;;30.33;13.10;;;12.30;99.90;;;;;;4991733;28;20453;-54
2022/03/27 10:43:35;;;;;;;37.30;15.50;;;12.40;99.90;;;;;;4987974;28;20475;-54
2022/03/27 10:46:12;;;;;;;37.10;14.80;;;12.40;99.90;;;;;;4988580;28;20458;-53
2022/03/27 10:48:42;;;;;;;35.40;15.13;;;12.80;99.90;;;;;;4969848;28;20485;-54
2022/03/27 10:51:08;;;;;;;28.67;14.03;;;13.30;99.90;;;;;;4989234;28;20941;-53
2022/03/27 10:53:33;;;;;;;30.30;14.07;;;13.60;99.90;;;;;;4985629;28;20534;-57
2022/03/27 10:55:59;;;;;;;27.63;13.40;;;14.40;99.90;;;;;;4985763;28;20446;-53
2022/03/27 10:58:37;;;;;;;31.73;14.03;;;15.20;99.90;;;;;;4986463;28;20702;-52
2022/03/27 11:01:27;;;;;;;34.70;15.07;;;15.50;99.90;;;;;;4987992;28;20184;-53
2022/03/27 11:04:13;;;;;;;30.47;14.10;;;16.00;99.90;;;;;;4969236;28;20452;-54
2022/03/27 11:06:44;;;;;;;33.17;15.37;;;16.00;99.90;;;;;;4988100;28;20500;-53
2022/03/27 11:09:32;;;;;;;36.90;13.37;;;16.10;99.90;;;;;;4989516;28;20459;-53
2022/03/27 11:12:00;;;;;;;28.48;14.20;;;16.50;99.90;;;;;;4984642;28;20598;-53
2022/03/27 11:15:04;;;;;;;31.87;15.80;;;17.10;99.90;;;;;;4982761;28;20868;-54
2022/03/27 11:17:32;;;;;;;29.23;15.80;;;17.70;99.90;;;;;;4979412;28;20462;-54
2022/03/27 11:19:59;;;;;;;30.40;16.57;;;18.10;99.90;;;;;;4992715;28;20196;-54
2022/03/27 11:22:44;;;;;;;30.00;15.93;;;18.30;99.90;;;;;;4992188;28;21047;-53
2022/03/27 11:25:34;;;;;;;33.70;16.63;;;18.50;99.90;;;;;;4991753;28;20487;-53
2022/03/27 11:28:03;;;;;;;30.10;16.70;;;18.90;99.90;;;;;;4989893;28;20446;-53
2022/03/27 11:30:29;;;;;;;34.13;17.07;;;19.30;99.90;;;;;;4989635;28;20439;-54
2022/03/27 11:33:11;;;;;;;25.87;15.63;;;19.30;99.90;;;;;;4994710;28;20458;-54
2022/03/27 11:35:37;;;;;;;36.63;16.30;;;19.10;99.90;;;;;;4990115;28;20540;-53
2022/03/27 11:38:20;;;;;;;31.67;16.80;;;19.20;99.90;;;;;;4990947;28;20522;-54
2022/03/27 11:40:46;;;;;;;34.83;17.13;;;19.30;99.90;;;;;;4992758;28;20187;-53
2022/03/27 11:43:31;;;;;;;25.13;14.80;;;19.50;99.90;;;;;;4992255;28;20463;-53
2022/03/27 11:45:59;;;;;;;37.37;15.23;;;19.50;99.90;;;;;;4996145;28;20188;-54
2022/03/27 11:48:25;;;;;;;28.43;15.93;;;20.00;99.90;;;;;;4992367;28;20428;-53
2022/03/27 11:50:54;;;;;;;23.63;13.70;;;20.70;99.90;;;;;;4992693;28;20431;-55
2022/03/27 11:53:34;;;;;;;21.50;11.47;;;20.70;99.90;;;;;;4988845;28;20447;-54
2022/03/27 11:56:07;;;;;;;18.40;10.20;;;20.80;99.90;;;;;;4984870;28;20451;-53
2022/03/27 11:58:34;;;;;;;20.70;9.30;;;20.60;99.90;;;;;;4986507;28;20483;-54
2022/03/27 12:01:08;;;;;;;15.30;8.93;;;20.10;99.90;;;;;;4986321;28;20439;-54
2022/03/27 12:03:35;;;;;;;16.07;8.87;;;19.60;99.90;;;;;;4986422;28;20435;-54
2022/03/27 12:06:10;;;;;;;15.50;8.87;;;19.80;99.90;;;;;;4984520;28;20983;-54
2022/03/27 12:08:38;;;;;;;17.50;9.73;;;20.00;99.90;;;;;;4990606;28;20501;-54
2022/03/27 12:11:06;;;;;;;15.30;8.77;;;20.10;99.90;;;;;;4991744;28;20667;-53
2022/03/27 12:13:42;;;;;;;14.93;8.83;;;20.20;99.90;;;;;;4989382;28;20482;-54
2022/03/27 12:16:20;;;;;;;17.77;8.83;;;20.70;99.90;;;;;;4984877;28;20524;-53
2022/03/27 12:18:47;;;;;;;15.80;8.73;;;21.10;99.90;;;;;;4983652;28;20446;-54
2022/03/27 12:21:13;;;;;;;17.73;9.47;;;21.00;99.90;;;;;;4993012;28;20457;-54
2022/03/27 12:23:47;;;;;;;13.40;9.20;;;20.80;99.90;;;;;;4989121;28;20451;-54
2022/03/27 12:32:03;;;;;;;18.63;9.17;;;20.10;99.90;;;;;;4989235;28;20956;-54
2022/03/27 12:34:28;;;;;;;15.40;9.30;;;20.40;99.90;;;;;;4985418;28;20445;-54
2022/03/27 12:37:24;;;;;;;13.50;8.27;;;20.60;99.90;;;;;;4972161;28;20458;-54
2022/03/27 12:39:50;;;;;;;12.47;8.33;;;20.90;99.90;;;;;;4982476;28;20607;-54
2022/03/27 12:42:42;;;;;;;20.90;9.10;;;20.90;99.90;;;;;;4985612;28;20468;-54
2022/03/27 12:45:23;;;;;;;18.70;8.60;;;21.00;99.90;;;;;;4990149;28;20180;-54
2022/03/27 12:47:54;;;;;;;14.27;8.50;;;21.20;99.90;;;;;;4991061;28;20454;-53
2022/03/27 12:50:25;;;;;;;14.00;7.90;;;20.70;99.90;;;;;;4983455;28;20463;-55
2022/03/27 12:52:58;;;;;;;13.57;8.20;;;20.70;99.90;;;;;;4987797;28;20439;-54
2022/03/27 12:55:26;;;;;;;17.30;7.70;;;20.80;99.90;;;;;;4985322;28;21436;-54
2022/03/27 12:58:00;;;;;;;14.70;7.93;;;20.50;99.90;;;;;;4989389;28;20482;-53